Time;durP1;ratioP1;P1;durP2;ratioP2;P2;SDS_P1;SDS_P2;PMS_P1;PMS_P2;Temp;Humidity;BMP_temperature;BMP_pressure;BME280_temperature;BME280_humidity;BME280_pressure;Samples;Min_cycle;Max_cycle;Signal;HPM_P1;HPM_P2
2022/07/17 00:01:42;;;;;;;2.97;2.80;;;21.30;37.60;;;;;;20811;6830;119412;-86
2022/07/17 00:04:08;;;;;;;3.30;2.97;;;21.30;37.60;;;;;;20803;6830;117132;-86
2022/07/17 00:06:33;;;;;;;3.40;3.10;;;20.90;38.00;;;;;;20578;6830;336077;-87
2022/07/17 00:09:00;;;;;;;3.20;3.00;;;21.10;38.50;;;;;;20598;6830;278604;-86
2022/07/17 00:11:26;;;;;;;3.22;3.03;;;21.60;38.10;;;;;;20600;6828;307130;-85
2022/07/17 00:13:53;;;;;;;3.70;3.50;;;21.60;38.10;;;;;;20809;6829;118989;-86
2022/07/17 00:16:18;;;;;;;3.80;3.40;;;21.40;38.10;;;;;;20806;6830;117229;-85
2022/07/17 00:18:43;;;;;;;6.53;3.60;;;21.10;38.50;;;;;;20669;6830;118004;-86
2022/07/17 00:21:09;;;;;;;3.50;3.20;;;20.90;38.80;;;;;;20612;6830;278234;-87
2022/07/17 00:23:35;;;;;;;4.93;3.30;;;21.30;38.50;;;;;;20604;6830;336610;-88
2022/07/17 00:26:01;;;;;;;3.60;3.30;;;21.30;38.50;;;;;;20818;6830;118684;-85
2022/07/17 00:28:27;;;;;;;3.40;3.20;;;20.90;38.60;;;;;;20816;6830;117326;-86
2022/07/17 00:30:53;;;;;;;3.35;3.05;;;20.80;38.50;;;;;;20603;6830;277219;-86
2022/07/17 00:33:18;;;;;;;3.53;3.33;;;21.00;38.60;;;;;;20591;6830;306682;-87
2022/07/17 00:35:44;;;;;;;3.70;3.10;;;21.30;38.60;;;;;;20815;6830;117176;-87
2022/07/17 00:38:10;;;;;;;3.60;3.17;;;21.10;38.20;;;;;;20600;6830;277619;-86
2022/07/17 00:40:35;;;;;;;3.30;3.00;;;21.10;38.20;;;;;;20576;6830;309015;-86
2022/07/17 00:43:01;;;;;;;4.43;3.13;;;21.30;38.00;;;;;;20614;6830;277652;-86
2022/07/17 00:45:27;;;;;;;3.43;3.13;;;21.40;37.60;;;;;;20814;6830;118549;-86
2022/07/17 00:47:59;;;;;;;3.40;3.10;;;21.10;37.90;;;;;;20610;6830;276745;-86
2022/07/17 00:50:24;;;;;;;3.27;3.00;;;21.10;38.00;;;;;;20796;6830;118465;-85
2022/07/17 00:52:50;;;;;;;5.53;3.25;;;20.80;38.80;;;;;;20800;6830;117584;-85
2022/07/17 00:55:16;;;;;;;3.40;3.10;;;20.50;38.50;;;;;;20615;6830;306414;-86
2022/07/17 00:57:42;;;;;;;3.70;3.10;;;20.60;39.10;;;;;;20602;6830;303730;-86
2022/07/17 01:00:10;;;;;;;3.00;2.90;;;20.90;38.40;;;;;;20602;6830;306718;-86
2022/07/17 01:02:33;;;;;;;3.00;2.80;;;21.20;38.10;;;;;;20795;6830;120156;-87
2022/07/17 01:04:59;;;;;;;3.07;2.97;;;21.00;38.10;;;;;;20831;6830;119841;-86
2022/07/17 01:07:25;;;;;;;4.62;3.20;;;20.70;38.40;;;;;;20605;6830;307098;-86
2022/07/17 01:09:50;;;;;;;3.33;3.12;;;20.90;38.50;;;;;;20604;6830;337963;-86
2022/07/17 01:12:16;;;;;;;3.80;3.50;;;21.10;38.40;;;;;;20606;6830;276724;-88
2022/07/17 01:14:41;;;;;;;3.28;3.08;;;21.30;37.90;;;;;;20579;6830;338699;-85
2022/07/17 01:17:07;;;;;;;3.62;3.37;;;21.40;38.00;;;;;;20608;6830;309488;-87
2022/07/17 01:19:33;;;;;;;3.60;3.40;;;21.40;38.20;;;;;;20602;6830;306219;-87
2022/07/17 01:21:59;;;;;;;3.80;3.40;;;21.40;37.80;;;;;;20611;6828;279144;-86
2022/07/17 01:24:26;;;;;;;3.80;3.60;;;21.40;37.50;;;;;;20588;6829;306854;-85
2022/07/17 01:26:51;;;;;;;4.97;3.60;;;21.40;37.70;;;;;;20825;6830;118378;-86
2022/07/17 01:29:17;;;;;;;4.72;3.83;;;21.00;38.00;;;;;;20822;6830;120244;-86
2022/07/17 01:31:42;;;;;;;3.58;3.37;;;20.50;38.50;;;;;;20820;6830;117098;-86
2022/07/17 01:34:08;;;;;;;3.80;3.60;;;20.10;39.10;;;;;;20815;6830;117925;-86
2022/07/17 01:36:33;;;;;;;3.62;3.35;;;19.80;39.60;;;;;;20788;6830;117317;-86
2022/07/17 01:38:59;;;;;;;3.72;3.53;;;19.60;40.00;;;;;;20815;6830;119067;-85
2022/07/17 01:41:25;;;;;;;4.03;3.73;;;19.40;40.20;;;;;;20602;6830;282524;-85
2022/07/17 01:43:50;;;;;;;4.17;3.97;;;19.60;40.60;;;;;;20814;6830;117103;-86
2022/07/17 01:46:16;;;;;;;3.83;3.62;;;19.60;40.30;;;;;;20608;6830;301590;-85
2022/07/17 01:48:41;;;;;;;4.60;4.00;;;19.80;40.50;;;;;;20800;6830;120383;-85
2022/07/17 01:51:07;;;;;;;3.70;3.50;;;19.70;40.30;;;;;;20612;6830;305860;-86
2022/07/17 01:53:33;;;;;;;4.12;3.83;;;20.20;40.20;;;;;;20607;6830;306866;-85
2022/07/17 01:55:59;;;;;;;4.67;3.60;;;20.20;40.20;;;;;;20829;6830;117845;-85
2022/07/17 01:58:24;;;;;;;4.10;3.80;;;20.10;40.10;;;;;;20593;6830;306873;-86
2022/07/17 02:00:50;;;;;;;3.80;3.50;;;20.10;40.10;;;;;;20615;6830;276716;-86
2022/07/17 02:03:15;;;;;;;4.10;3.70;;;20.30;39.70;;;;;;20815;6830;118822;-86
2022/07/17 02:05:41;;;;;;;5.20;3.65;;;20.10;39.80;;;;;;20805;6830;117263;-86
2022/07/17 02:08:07;;;;;;;3.80;3.50;;;19.70;40.30;;;;;;20807;6830;117152;-86
2022/07/17 02:10:32;;;;;;;4.30;4.00;;;19.40;40.70;;;;;;20583;6830;278260;-86
2022/07/17 02:12:58;;;;;;;4.07;3.78;;;19.50;41.10;;;;;;20601;6830;306496;-86
2022/07/17 02:15:23;;;;;;;3.87;3.57;;;19.90;40.70;;;;;;20811;6830;118420;-86
2022/07/17 02:17:49;;;;;;;4.40;4.10;;;19.70;40.60;;;;;;20596;6830;279462;-86
2022/07/17 02:20:15;;;;;;;4.25;3.90;;;19.80;40.50;;;;;;20596;6830;307663;-86
2022/07/17 02:22:40;;;;;;;4.10;3.80;;;20.00;40.50;;;;;;20574;6830;277028;-86
2022/07/17 02:25:06;;;;;;;4.15;3.85;;;20.20;40.00;;;;;;20593;6830;336397;-86
2022/07/17 02:27:31;;;;;;;4.37;3.97;;;20.30;40.00;;;;;;20582;6830;278244;-86
2022/07/17 02:29:57;;;;;;;4.55;4.18;;;20.30;39.80;;;;;;20593;6830;306997;-87
2022/07/17 02:32:23;;;;;;;4.30;4.00;;;20.30;40.40;;;;;;20581;6830;278383;-86
2022/07/17 02:34:48;;;;;;;4.20;4.00;;;20.40;39.80;;;;;;20598;6829;306446;-86
2022/07/17 02:37:14;;;;;;;3.90;3.70;;;20.40;39.60;;;;;;20595;6829;306541;-86
2022/07/17 02:39:52;;;;;;;4.20;4.00;;;20.50;39.80;;;;;;20591;6830;305074;-86
2022/07/17 02:42:06;;;;;;;4.00;3.70;;;20.10;39.80;;;;;;20772;6830;117279;-86
2022/07/17 02:44:31;;;;;;;4.10;3.80;;;20.10;39.80;;;;;;20781;6830;119149;-86
2022/07/17 02:46:57;;;;;;;4.20;3.90;;;19.60;40.40;;;;;;20605;6830;307239;-86
2022/07/17 02:49:22;;;;;;;3.72;3.50;;;19.70;40.90;;;;;;20817;6830;119525;-86
2022/07/17 02:51:48;;;;;;;4.30;3.90;;;19.50;40.90;;;;;;20595;6830;312279;-86
2022/07/17 02:54:13;;;;;;;4.20;3.90;;;19.50;41.00;;;;;;20810;6830;117785;-86
2022/07/17 02:56:39;;;;;;;4.43;4.12;;;19.40;41.00;;;;;;20578;6830;278403;-86
2022/07/17 02:59:05;;;;;;;4.03;3.83;;;19.50;41.30;;;;;;20814;6830;117134;-85
2022/07/17 03:01:30;;;;;;;4.47;4.07;;;19.40;41.30;;;;;;20590;6830;306093;-86
2022/07/17 03:03:56;;;;;;;4.20;3.97;;;19.50;41.10;;;;;;20816;6830;117346;-86
2022/07/17 03:06:21;;;;;;;4.10;3.90;;;19.40;41.10;;;;;;20789;6830;120503;-87
2022/07/17 03:08:47;;;;;;;4.30;3.60;;;19.10;41.40;;;;;;20804;6830;118756;-85
2022/07/17 03:11:12;;;;;;;4.70;4.20;;;18.90;41.90;;;;;;20813;6830;118379;-87
2022/07/17 03:13:39;;;;;;;4.00;3.70;;;18.70;42.80;;;;;;20795;6830;119213;-87
2022/07/17 03:16:04;;;;;;;4.32;4.10;;;18.60;42.70;;;;;;20597;6830;278397;-86
2022/07/17 03:18:30;;;;;;;4.17;3.87;;;19.00;43.30;;;;;;20570;6830;306507;-87
2022/07/17 03:20:56;;;;;;;4.70;4.40;;;19.40;42.20;;;;;;20798;6830;118480;-86
2022/07/17 03:23:21;;;;;;;6.27;5.77;;;19.30;42.00;;;;;;20801;6830;117608;-86
2022/07/17 03:25:47;;;;;;;6.67;6.17;;;19.00;42.20;;;;;;20592;6830;307769;-86
2022/07/17 03:28:12;;;;;;;6.83;6.33;;;19.10;42.50;;;;;;20806;6830;118811;-86
2022/07/17 03:30:38;;;;;;;4.17;3.90;;;19.10;42.50;;;;;;20558;6830;310285;-87
2022/07/17 03:33:03;;;;;;;3.72;3.42;;;19.30;42.60;;;;;;20806;6830;118488;-86
2022/07/17 03:35:29;;;;;;;4.47;4.10;;;19.20;42.70;;;;;;20803;6830;117640;-86
2022/07/17 03:37:55;;;;;;;4.20;4.00;;;19.10;43.20;;;;;;20599;6830;306793;-86
2022/07/17 03:40:21;;;;;;;4.07;3.80;;;19.10;43.90;;;;;;20789;6830;122908;-86
2022/07/17 03:42:46;;;;;;;4.67;4.27;;;19.00;42.90;;;;;;20593;6830;315444;-86
2022/07/17 03:45:12;;;;;;;4.00;3.80;;;19.20;42.80;;;;;;20818;6828;118851;-86
2022/07/17 03:47:37;;;;;;;4.22;3.92;;;19.10;42.70;;;;;;20605;6829;277735;-87
2022/07/17 03:50:03;;;;;;;4.15;3.90;;;19.20;42.60;;;;;;20597;6830;306439;-86
2022/07/17 03:52:29;;;;;;;3.90;3.60;;;19.50;42.20;;;;;;20566;6830;309424;-86
2022/07/17 03:54:54;;;;;;;3.80;3.60;;;19.80;42.20;;;;;;20806;6830;117811;-86
2022/07/17 03:57:20;;;;;;;4.40;4.00;;;19.60;42.10;;;;;;20598;6830;280742;-87
2022/07/17 03:59:45;;;;;;;3.40;3.30;;;19.50;41.90;;;;;;20804;6830;117972;-86
2022/07/17 04:02:11;;;;;;;4.13;3.70;;;19.30;42.10;;;;;;20587;6830;307178;-87
2022/07/17 04:04:37;;;;;;;3.70;3.47;;;19.30;42.40;;;;;;20781;6830;118509;-86
2022/07/17 04:07:03;;;;;;;4.00;3.80;;;19.20;42.50;;;;;;20591;6830;306017;-86
2022/07/17 04:09:28;;;;;;;4.10;3.80;;;19.20;42.50;;;;;;20593;6830;289553;-87
2022/07/17 04:11:54;;;;;;;4.18;3.87;;;19.50;42.00;;;;;;20598;6830;277753;-86
2022/07/17 04:14:20;;;;;;;4.10;3.72;;;19.60;41.60;;;;;;20786;6830;119652;-86
2022/07/17 04:16:45;;;;;;;4.50;4.10;;;19.40;41.70;;;;;;20589;6830;301154;-86
2022/07/17 04:19:11;;;;;;;4.33;4.07;;;19.40;41.90;;;;;;20604;6830;297498;-88
2022/07/17 04:21:36;;;;;;;4.87;3.77;;;19.60;41.50;;;;;;20801;6830;118616;-85
2022/07/17 04:24:03;;;;;;;4.40;4.00;;;19.40;41.70;;;;;;20606;6830;276495;-86
2022/07/17 04:26:29;;;;;;;4.87;4.00;;;19.40;41.80;;;;;;20578;6830;277462;-86
2022/07/17 04:28:54;;;;;;;3.80;3.60;;;19.60;41.70;;;;;;20797;6830;121298;-86
2022/07/17 04:31:20;;;;;;;4.40;4.00;;;19.40;41.80;;;;;;20601;6830;306448;-86
2022/07/17 04:33:46;;;;;;;4.40;4.00;;;19.40;42.10;;;;;;20810;6830;117502;-87
2022/07/17 04:36:11;;;;;;;3.90;3.70;;;19.20;42.30;;;;;;20807;6830;117302;-86
2022/07/17 04:38:37;;;;;;;4.10;3.87;;;18.90;42.60;;;;;;20780;6830;119399;-86
2022/07/17 04:41:02;;;;;;;4.53;3.40;;;18.70;43.10;;;;;;20799;6830;117299;-86
2022/07/17 04:43:28;;;;;;;4.40;4.10;;;18.50;43.30;;;;;;20590;6830;308822;-86
2022/07/17 04:45:53;;;;;;;4.28;4.07;;;18.70;43.40;;;;;;20587;6830;338128;-86
2022/07/17 04:48:19;;;;;;;3.90;3.60;;;19.10;43.00;;;;;;20792;6830;127179;-86
2022/07/17 04:50:45;;;;;;;4.70;4.30;;;19.10;43.00;;;;;;20588;6830;309196;-86
2022/07/17 04:53:10;;;;;;;4.90;4.60;;;19.20;43.20;;;;;;20599;6830;319523;-86
2022/07/17 04:55:37;;;;;;;5.50;5.10;;;19.50;42.60;;;;;;20797;6830;117404;-85
2022/07/17 04:58:02;;;;;;;5.55;5.00;;;19.20;42.50;;;;;;20807;6828;118599;-86
2022/07/17 05:00:28;;;;;;;4.62;4.32;;;19.20;43.00;;;;;;20576;6829;280357;-86
2022/07/17 05:02:53;;;;;;;5.40;5.00;;;19.50;43.00;;;;;;20585;6830;307323;-86
2022/07/17 05:05:19;;;;;;;4.62;4.18;;;19.80;42.40;;;;;;20808;6830;118205;-86
2022/07/17 05:07:45;;;;;;;5.50;5.18;;;19.80;42.30;;;;;;20589;6830;336358;-88
2022/07/17 05:10:11;;;;;;;5.22;4.90;;;19.90;41.90;;;;;;20601;6830;307389;-86
2022/07/17 05:12:37;;;;;;;5.60;4.68;;;20.10;41.60;;;;;;20785;6830;117220;-85
2022/07/17 05:15:03;;;;;;;4.43;4.13;;;20.10;41.40;;;;;;20791;6830;117317;-85
2022/07/17 05:17:29;;;;;;;4.43;4.12;;;19.90;41.80;;;;;;20594;6830;335517;-86
2022/07/17 05:19:55;;;;;;;4.40;4.10;;;20.10;42.10;;;;;;20807;6830;117574;-86
2022/07/17 05:22:21;;;;;;;4.43;4.03;;;19.90;42.10;;;;;;20782;6830;119070;-87
2022/07/17 05:24:47;;;;;;;4.00;3.70;;;19.90;42.10;;;;;;20584;6830;335980;-87
2022/07/17 05:27:12;;;;;;;4.30;4.00;;;20.10;43.20;;;;;;20592;6830;307386;-86
2022/07/17 05:29:38;;;;;;;3.83;3.62;;;20.50;42.80;;;;;;20806;6830;120483;-86
2022/07/17 05:32:04;;;;;;;3.60;3.40;;;20.40;42.70;;;;;;20807;6830;117323;-86
2022/07/17 05:34:29;;;;;;;4.10;3.70;;;20.10;43.00;;;;;;20578;6830;306910;-87
2022/07/17 05:36:55;;;;;;;3.50;3.20;;;20.30;43.60;;;;;;20857;6830;116500;-89
2022/07/17 05:39:20;;;;;;;3.37;3.27;;;20.30;43.50;;;;;;20870;6830;90312;-86
2022/07/17 05:41:46;;;;;;;5.60;3.83;;;20.10;43.60;;;;;;20587;6830;307084;-86
2022/07/17 05:44:12;;;;;;;3.92;3.47;;;20.30;43.80;;;;;;20593;6830;307196;-86
2022/07/17 05:46:37;;;;;;;3.73;3.53;;;20.70;43.40;;;;;;20564;6830;431835;-88
2022/07/17 05:49:03;;;;;;;4.40;4.00;;;20.90;42.80;;;;;;20591;6830;337742;-86
2022/07/17 05:51:28;;;;;;;4.13;3.73;;;21.10;42.70;;;;;;20569;6830;307431;-86
2022/07/17 05:53:54;;;;;;;4.00;3.80;;;21.20;42.40;;;;;;20582;6830;335541;-86
2022/07/17 05:56:19;;;;;;;7.40;3.80;;;21.30;43.20;;;;;;20791;6830;117716;-85
2022/07/17 05:58:45;;;;;;;3.77;3.40;;;21.00;42.70;;;;;;20806;6830;118310;-86
2022/07/17 06:01:11;;;;;;;3.85;3.62;;;20.70;43.20;;;;;;20598;6830;279312;-86
2022/07/17 06:03:36;;;;;;;3.87;3.60;;;20.80;43.50;;;;;;20590;6830;330148;-87
2022/07/17 06:06:02;;;;;;;4.32;4.03;;;21.10;43.10;;;;;;20814;6830;119128;-86
2022/07/17 06:08:27;;;;;;;3.60;3.40;;;21.00;43.10;;;;;;20783;6828;118069;-86
2022/07/17 06:10:53;;;;;;;4.03;3.50;;;20.80;43.30;;;;;;20601;6829;306029;-86
2022/07/17 06:13:18;;;;;;;3.90;3.60;;;21.00;43.10;;;;;;20819;6830;118081;-87
2022/07/17 06:15:44;;;;;;;4.60;3.87;;;21.10;43.10;;;;;;20599;6830;289976;-85
2022/07/17 06:18:10;;;;;;;4.10;3.70;;;21.40;42.80;;;;;;20814;6830;117503;-86
2022/07/17 06:20:35;;;;;;;4.55;3.83;;;21.40;42.70;;;;;;20789;6830;117152;-86
2022/07/17 06:23:01;;;;;;;4.23;3.90;;;21.70;43.00;;;;;;20592;6830;304635;-86
2022/07/17 06:25:27;;;;;;;3.93;3.63;;;21.70;42.70;;;;;;20806;6830;117382;-87
2022/07/17 06:27:53;;;;;;;3.97;3.53;;;21.80;42.50;;;;;;20599;6830;306884;-86
2022/07/17 06:30:19;;;;;;;4.00;3.70;;;23.10;41.40;;;;;;20592;6830;307314;-85
2022/07/17 06:32:45;;;;;;;3.95;3.62;;;23.00;41.20;;;;;;20449;6830;335948;-86
2022/07/17 06:35:11;;;;;;;3.90;3.70;;;24.70;40.50;;;;;;20804;6830;120457;-86
2022/07/17 06:37:36;;;;;;;9.67;3.60;;;24.70;40.40;;;;;;20808;6830;117161;-87
2022/07/17 06:40:03;;;;;;;3.97;3.70;;;25.60;40.20;;;;;;20808;6830;117165;-87
2022/07/17 06:42:29;;;;;;;3.45;3.25;;;25.60;40.10;;;;;;20570;6830;279865;-87
2022/07/17 06:44:54;;;;;;;3.37;3.00;;;26.50;36.90;;;;;;20597;6830;279465;-87
2022/07/17 06:47:20;;;;;;;3.70;3.40;;;27.60;35.00;;;;;;20795;6830;117933;-88
2022/07/17 06:49:45;;;;;;;3.03;2.83;;;28.10;35.30;;;;;;20789;6830;120135;-85
2022/07/17 06:52:11;;;;;;;3.72;3.37;;;28.50;35.50;;;;;;20576;6830;277309;-89
2022/07/17 06:54:36;;;;;;;3.23;3.03;;;29.10;33.40;;;;;;20799;6830;117722;-86
2022/07/17 06:57:02;;;;;;;6.07;3.17;;;29.40;33.80;;;;;;20821;6830;118136;-85
2022/07/17 06:59:28;;;;;;;3.87;3.33;;;29.50;33.90;;;;;;20819;6830;119445;-87
2022/07/17 07:01:54;;;;;;;3.83;3.53;;;30.10;31.30;;;;;;20594;6830;307645;-85
2022/07/17 07:04:19;;;;;;;3.97;3.67;;;30.10;31.20;;;;;;20780;6830;118244;-87
2022/07/17 07:06:45;;;;;;;3.70;3.50;;;30.50;31.50;;;;;;20616;6830;278400;-87
2022/07/17 07:09:13;;;;;;;3.60;3.30;;;30.80;29.70;;;;;;20816;6830;117651;-85
2022/07/17 07:11:39;;;;;;;8.00;3.20;;;30.90;29.90;;;;;;20813;6830;116687;-85
2022/07/17 07:14:05;;;;;;;4.93;2.90;;;30.80;30.20;;;;;;20820;6830;117200;-84
2022/07/17 07:16:31;;;;;;;3.15;2.83;;;30.50;29.70;;;;;;20789;6830;117663;-85
2022/07/17 07:18:56;;;;;;;3.30;3.00;;;30.50;29.70;;;;;;20812;6830;117736;-84
2022/07/17 07:21:24;;;;;;;3.50;3.20;;;30.50;29.00;;;;;;20600;6828;306991;-85
2022/07/17 07:23:48;;;;;;;3.30;3.10;;;30.40;28.90;;;;;;20610;6830;283649;-84
2022/07/17 07:26:14;;;;;;;3.05;2.80;;;30.70;29.00;;;;;;20616;6830;277343;-85
2022/07/17 07:28:39;;;;;;;2.87;2.67;;;30.90;28.60;;;;;;20798;6830;118929;-84
2022/07/17 07:31:05;;;;;;;3.30;3.00;;;30.70;28.30;;;;;;20595;6830;278238;-85
2022/07/17 07:33:31;;;;;;;3.40;3.10;;;30.70;28.80;;;;;;20591;6830;308647;-85
2022/07/17 07:35:57;;;;;;;3.42;3.20;;;30.60;28.20;;;;;;20593;6830;339088;-86
2022/07/17 07:38:22;;;;;;;3.20;2.77;;;30.60;28.00;;;;;;20568;6830;277097;-86
2022/07/17 07:40:48;;;;;;;4.13;2.90;;;30.60;28.40;;;;;;20593;6830;279456;-85
2022/07/17 07:43:14;;;;;;;3.10;2.80;;;30.50;27.70;;;;;;20582;6830;336279;-85
2022/07/17 07:45:39;;;;;;;3.60;2.53;;;30.40;27.80;;;;;;20806;6830;118542;-85
2022/07/17 07:48:05;;;;;;;2.90;2.60;;;30.10;27.90;;;;;;20816;6830;117275;-84
2022/07/17 07:50:30;;;;;;;3.00;2.80;;;29.60;28.30;;;;;;20586;6830;281316;-85
2022/07/17 07:52:57;;;;;;;2.50;2.40;;;29.50;28.40;;;;;;20816;6830;118071;-85
2022/07/17 07:55:22;;;;;;;4.07;2.83;;;29.50;28.40;;;;;;20810;6830;117931;-85
2022/07/17 07:57:49;;;;;;;3.12;2.53;;;29.40;28.80;;;;;;20578;6830;307111;-85
2022/07/17 08:00:15;;;;;;;2.90;2.70;;;29.70;28.90;;;;;;20592;6830;277931;-84
2022/07/17 08:02:40;;;;;;;2.43;2.33;;;29.70;28.90;;;;;;20796;6830;117724;-86
2022/07/17 08:05:06;;;;;;;2.95;2.75;;;29.70;28.90;;;;;;20586;6830;307746;-85
2022/07/17 08:07:32;;;;;;;2.80;2.70;;;29.80;28.30;;;;;;20797;6830;117108;-85
2022/07/17 08:09:58;;;;;;;3.00;2.80;;;29.70;28.50;;;;;;20789;6830;117890;-85
2022/07/17 08:12:23;;;;;;;3.27;2.97;;;29.40;29.20;;;;;;20577;6830;278442;-84
2022/07/17 08:14:48;;;;;;;2.80;2.70;;;29.50;29.70;;;;;;20800;6830;119177;-85
2022/07/17 08:17:14;;;;;;;3.07;2.77;;;29.60;29.60;;;;;;20801;6830;117812;-85
2022/07/17 08:19:39;;;;;;;3.37;2.93;;;29.50;29.60;;;;;;20799;6830;117747;-85
2022/07/17 08:22:05;;;;;;;3.13;2.93;;;29.50;30.00;;;;;;20807;6830;118495;-84
2022/07/17 08:24:31;;;;;;;2.60;2.50;;;29.70;29.00;;;;;;20571;6830;287255;-85
2022/07/17 08:26:57;;;;;;;2.97;2.80;;;29.70;29.00;;;;;;20802;6830;118545;-86
2022/07/17 08:29:23;;;;;;;4.20;2.80;;;29.80;29.20;;;;;;20803;6830;117641;-86
2022/07/17 08:31:49;;;;;;;2.37;2.17;;;29.80;29.10;;;;;;20787;6828;117055;-85
2022/07/17 08:34:15;;;;;;;2.60;2.50;;;29.70;29.30;;;;;;20801;6829;118322;-84
2022/07/17 08:36:41;;;;;;;2.50;2.40;;;29.80;29.30;;;;;;20785;6830;117168;-85
2022/07/17 08:39:06;;;;;;;2.80;2.60;;;29.80;29.30;;;;;;20799;6830;121691;-85
2022/07/17 08:41:36;;;;;;;2.97;2.70;;;29.80;29.30;;;;;;20806;6830;117568;-85
2022/07/17 08:43:58;;;;;;;3.03;2.60;;;29.70;29.10;;;;;;20588;6830;278054;-86
2022/07/17 08:46:27;;;;;;;2.63;2.43;;;30.10;28.60;;;;;;20567;6830;278368;-85
2022/07/17 08:48:52;;;;;;;2.60;2.43;;;30.60;28.60;;;;;;20586;6830;278988;-86
2022/07/17 08:51:19;;;;;;;2.60;2.40;;;30.90;27.80;;;;;;20588;6830;277856;-85
2022/07/17 08:53:45;;;;;;;2.67;2.47;;;31.10;27.50;;;;;;20582;6830;306468;-87
2022/07/17 08:56:11;;;;;;;2.70;2.30;;;31.30;27.90;;;;;;20805;6830;117254;-86
2022/07/17 08:58:37;;;;;;;2.50;2.40;;;31.30;27.10;;;;;;20572;6830;279661;-86
2022/07/17 09:01:02;;;;;;;3.00;2.40;;;31.30;27.10;;;;;;20591;6830;279843;-86
2022/07/17 09:03:28;;;;;;;2.83;2.63;;;31.70;26.80;;;;;;20584;6830;277948;-86
2022/07/17 09:05:54;;;;;;;2.60;2.50;;;31.70;26.80;;;;;;20793;6830;117358;-84
2022/07/17 09:08:20;;;;;;;2.33;2.23;;;31.70;26.70;;;;;;20777;6830;117552;-86
2022/07/17 09:10:46;;;;;;;3.10;2.80;;;31.40;26.70;;;;;;20581;6830;307903;-86
2022/07/17 09:13:29;;;;;;;2.33;2.20;;;31.40;26.20;;;;;;20578;6830;307114;-86
2022/07/17 09:16:10;;;;;;;3.27;2.97;;;31.70;27.30;;;;;;20589;6830;277942;-85
2022/07/17 09:18:53;;;;;;;2.50;2.30;;;31.80;25.00;;;;;;20569;6830;277273;-84
2022/07/17 09:21:16;;;;;;;2.53;2.10;;;32.00;25.20;;;;;;20805;6830;117466;-82
2022/07/17 09:23:42;;;;;;;2.40;2.30;;;31.80;25.60;;;;;;20586;6830;306837;-84
2022/07/17 09:26:08;;;;;;;2.70;2.50;;;31.70;24.80;;;;;;20806;6830;116721;-85
2022/07/17 09:28:33;;;;;;;3.00;2.40;;;31.60;25.40;;;;;;20762;6830;117624;-84
2022/07/17 09:30:59;;;;;;;2.10;2.00;;;31.50;25.90;;;;;;20761;6830;117308;-84
2022/07/17 09:33:26;;;;;;;2.83;2.23;;;31.40;25.80;;;;;;20810;6830;117301;-84
2022/07/17 09:35:51;;;;;;;2.47;2.28;;;31.20;25.50;;;;;;20592;6830;305602;-83
2022/07/17 09:38:35;;;;;;;2.40;2.20;;;31.30;25.00;;;;;;20841;6830;117115;-86
2022/07/17 09:41:11;;;;;;;2.30;2.10;;;31.20;25.20;;;;;;20573;6830;306434;-85
2022/07/17 09:43:35;;;;;;;2.20;2.00;;;31.40;24.80;;;;;;20860;6828;119583;-85
2022/07/17 09:46:01;;;;;;;2.37;2.23;;;31.20;25.30;;;;;;20851;6829;118475;-89
2022/07/17 09:48:28;;;;;;;2.87;2.10;;;31.10;25.80;;;;;;20823;6830;117678;-84
2022/07/17 09:50:54;;;;;;;3.47;2.77;;;31.10;25.60;;;;;;20844;6830;117279;-87
2022/07/17 09:53:20;;;;;;;2.40;2.30;;;31.00;25.60;;;;;;20625;6830;307444;-88
2022/07/17 09:55:45;;;;;;;2.20;2.10;;;31.10;25.20;;;;;;20839;6830;116705;-85
2022/07/17 09:58:11;;;;;;;2.33;2.12;;;31.30;25.20;;;;;;20607;6830;277437;-85
2022/07/17 10:00:37;;;;;;;2.30;2.10;;;31.50;23.70;;;;;;20581;6830;309306;-86
2022/07/17 10:03:03;;;;;;;2.20;2.10;;;31.80;24.00;;;;;;20594;6830;307714;-87
2022/07/17 10:05:28;;;;;;;2.30;1.73;;;31.80;23.60;;;;;;20805;6830;117203;-85
2022/07/17 10:07:54;;;;;;;1.70;1.60;;;31.80;24.20;;;;;;20803;6830;117082;-88
2022/07/17 10:10:19;;;;;;;1.80;1.70;;;31.60;23.80;;;;;;20558;6830;307520;-86
2022/07/17 10:12:46;;;;;;;2.60;1.80;;;31.80;23.80;;;;;;20600;6830;305788;-87
2022/07/17 10:15:11;;;;;;;3.57;2.20;;;31.70;23.80;;;;;;20802;6830;117234;-86
2022/07/17 10:17:38;;;;;;;2.17;1.90;;;31.70;24.40;;;;;;20801;6830;117107;-87
2022/07/17 10:20:13;;;;;;;1.90;1.80;;;31.60;23.80;;;;;;20805;6830;117204;-87
2022/07/17 10:22:29;;;;;;;2.00;1.90;;;31.50;23.90;;;;;;20717;6830;117797;-88
2022/07/17 10:24:56;;;;;;;2.57;2.10;;;31.50;24.00;;;;;;20759;6830;117750;-86
2022/07/17 10:27:22;;;;;;;2.13;1.90;;;31.40;24.20;;;;;;20802;6830;117199;-85
2022/07/17 10:29:47;;;;;;;2.23;2.07;;;31.30;24.00;;;;;;20623;6830;306679;-86
2022/07/17 10:32:16;;;;;;;2.33;1.75;;;31.50;23.30;;;;;;20548;6830;306972;-85
2022/07/17 10:34:48;;;;;;;2.33;1.77;;;31.90;23.10;;;;;;20779;6830;117245;-86
2022/07/17 10:37:18;;;;;;;1.90;1.80;;;31.90;23.50;;;;;;20792;6830;117722;-85
2022/07/17 10:39:51;;;;;;;2.10;2.00;;;31.80;23.40;;;;;;20807;6830;118535;-86
2022/07/17 10:42:16;;;;;;;2.70;2.10;;;31.80;23.60;;;;;;20798;6830;117158;-87
2022/07/17 10:44:42;;;;;;;2.57;2.00;;;31.70;23.80;;;;;;20701;6830;118672;-86
2022/07/17 10:47:07;;;;;;;2.60;2.00;;;31.70;23.50;;;;;;20598;6830;306519;-87
2022/07/17 10:49:33;;;;;;;2.23;1.97;;;31.80;23.20;;;;;;20806;6830;116142;-85
2022/07/17 10:52:00;;;;;;;3.00;1.90;;;31.90;23.20;;;;;;20596;6830;308877;-84
2022/07/17 10:54:26;;;;;;;1.93;1.83;;;32.00;22.60;;;;;;20572;6828;309554;-85
2022/07/17 10:56:52;;;;;;;2.90;1.97;;;32.10;22.30;;;;;;20792;6829;118978;-87
2022/07/17 10:59:17;;;;;;;1.83;1.73;;;32.00;22.10;;;;;;20573;6830;310382;-85
2022/07/17 11:01:44;;;;;;;2.15;1.80;;;32.30;21.60;;;;;;20597;6830;308238;-86
2022/07/17 11:04:09;;;;;;;1.93;1.73;;;32.20;21.60;;;;;;20570;6830;307030;-87
2022/07/17 11:06:36;;;;;;;1.97;1.87;;;32.40;21.20;;;;;;20567;6830;306377;-84
2022/07/17 11:09:04;;;;;;;1.70;1.60;;;32.40;21.20;;;;;;20578;6830;303093;-86
2022/07/17 11:11:47;;;;;;;1.80;1.70;;;32.50;21.20;;;;;;20585;6830;289945;-86
2022/07/17 11:14:12;;;;;;;1.70;1.60;;;32.60;20.70;;;;;;20594;6830;277921;-89
2022/07/17 11:16:48;;;;;;;1.98;1.80;;;32.50;21.80;;;;;;20768;6830;117784;-94
2022/07/17 11:19:31;;;;;;;1.87;1.77;;;32.50;21.30;;;;;;20586;6830;279372;-92
2022/07/17 11:21:59;;;;;;;3.23;3.03;;;32.50;22.00;;;;;;20570;6830;118274;-90
2022/07/17 11:24:26;;;;;;;4.20;3.83;;;32.10;22.10;;;;;;20788;6830;117606;-88
2022/07/17 11:26:51;;;;;;;2.47;2.27;;;32.10;22.10;;;;;;20756;6830;119066;-87
2022/07/17 11:29:16;;;;;;;1.53;1.53;;;32.00;22.50;;;;;;20799;6830;117656;-87
2022/07/17 11:31:42;;;;;;;1.77;1.70;;;31.90;22.30;;;;;;20590;6830;307439;-88
2022/07/17 11:34:11;;;;;;;1.60;1.50;;;32.30;21.50;;;;;;20584;6830;296932;-88
2022/07/17 11:36:41;;;;;;;1.60;1.50;;;32.30;21.30;;;;;;20785;6830;117571;-88
2022/07/17 11:39:06;;;;;;;2.37;2.17;;;32.30;21.20;;;;;;20805;6830;118085;-89
2022/07/17 11:41:37;;;;;;;1.93;1.67;;;32.20;20.50;;;;;;20846;6830;116299;-90
2022/07/17 11:44:03;;;;;;;1.15;1.15;;;32.00;20.70;;;;;;20652;6830;305857;-91
2022/07/17 11:46:29;;;;;;;1.97;1.70;;;32.10;19.50;;;;;;20839;6830;117078;-89
2022/07/17 11:48:54;;;;;;;1.67;1.57;;;32.00;20.40;;;;;;20863;6830;116785;-88
2022/07/17 11:51:20;;;;;;;1.40;1.40;;;32.00;20.40;;;;;;20861;6830;118000;-86
2022/07/17 11:53:47;;;;;;;1.47;1.47;;;31.90;20.30;;;;;;20872;6830;116242;-89
2022/07/17 11:56:11;;;;;;;2.20;2.10;;;31.80;20.20;;;;;;20850;6830;116253;-91
2022/07/17 11:58:47;;;;;;;2.90;2.60;;;31.60;20.50;;;;;;20810;6830;118289;-86
2022/07/17 12:01:13;;;;;;;3.40;3.20;;;31.60;21.20;;;;;;20616;6830;308127;-90
2022/07/17 12:03:39;;;;;;;2.83;2.60;;;31.80;21.00;;;;;;20631;6830;306463;-86
2022/07/17 12:06:05;;;;;;;3.13;2.97;;;32.20;19.10;;;;;;20861;6828;116319;-86
2022/07/17 12:08:31;;;;;;;1.57;1.57;;;32.20;19.50;;;;;;20844;6829;118676;-89
2022/07/17 12:11:04;;;;;;;1.73;1.63;;;32.10;20.00;;;;;;20876;6830;116346;-88
2022/07/17 12:13:43;;;;;;;1.73;1.50;;;31.90;20.20;;;;;;20640;6830;279511;-88
2022/07/17 12:16:29;;;;;;;1.92;1.58;;;32.00;20.30;;;;;;20644;6830;305975;-89
2022/07/17 12:18:56;;;;;;;1.73;1.62;;;32.50;20.40;;;;;;20609;6830;306747;-87
2022/07/17 12:21:21;;;;;;;2.47;1.50;;;32.40;20.30;;;;;;20793;6830;119771;-86
2022/07/17 12:23:47;;;;;;;1.93;1.53;;;32.40;20.80;;;;;;20819;6830;116644;-87
2022/07/17 12:26:14;;;;;;;1.60;1.60;;;32.20;21.00;;;;;;20560;6830;309538;-87
2022/07/17 12:28:38;;;;;;;1.60;1.53;;;32.20;20.00;;;;;;20577;6830;288846;-86
2022/07/17 12:31:04;;;;;;;1.67;1.57;;;32.30;20.10;;;;;;20606;6830;280782;-89